createdAt,value
2022-11-12T00:01:27.252Z,7.40
2022-11-12T00:04:12.968Z,7.50
2022-11-12T00:06:59.114Z,7.50
2022-11-12T00:09:44.906Z,7.50
2022-11-12T00:12:30.589Z,7.40
2022-11-12T00:15:16.514Z,7.40
2022-11-12T00:18:02.335Z,7.40
2022-11-12T00:20:48.313Z,7.40
2022-11-12T00:23:34.012Z,7.30
2022-11-12T00:26:19.752Z,7.40
2022-11-12T00:29:06.315Z,7.30
2022-11-12T00:31:51.986Z,7.30
2022-11-12T00:34:37.958Z,7.20
2022-11-12T00:37:25.018Z,7.20
2022-11-12T00:40:10.996Z,7.20
2022-11-12T00:42:56.994Z,7.20
2022-11-12T00:45:43.760Z,7.20
2022-11-12T00:48:29.801Z,7.20
2022-11-12T00:54:02.329Z,7.20
2022-11-12T00:56:48.774Z,7.00
2022-11-12T00:59:34.286Z,6.80
2022-11-12T01:02:20.588Z,6.70
2022-11-12T01:05:06.827Z,6.60
2022-11-12T01:07:55.940Z,6.60
2022-11-12T01:10:42.040Z,6.50
2022-11-12T01:13:28.100Z,6.50
2022-11-12T01:16:20.046Z,6.50
2022-11-12T01:19:08.725Z,6.50
2022-11-12T01:21:54.784Z,6.50
2022-11-12T01:24:40.068Z,6.50
2022-11-12T01:27:25.749Z,6.50
2022-11-12T01:30:11.850Z,6.50
2022-11-12T01:32:57.537Z,6.50
2022-11-12T01:35:43.007Z,6.50
2022-11-12T01:38:28.845Z,6.50
2022-11-12T01:41:19.182Z,6.40
2022-11-12T01:44:23.338Z,6.40
2022-11-12T01:47:36.130Z,6.40
2022-11-12T01:50:32.272Z,6.40
2022-11-12T01:53:20.188Z,6.40
2022-11-12T01:56:06.939Z,6.40
2022-11-12T01:59:27.371Z,6.40
2022-11-12T02:02:13.335Z,6.40
2022-11-12T02:04:59.795Z,6.40
2022-11-12T02:07:47.162Z,6.40
2022-11-12T02:10:32.798Z,6.40
2022-11-12T02:13:38.067Z,6.40
2022-11-12T02:16:45.261Z,6.50
2022-11-12T02:19:31.051Z,6.40
2022-11-12T02:22:16.412Z,6.40
2022-11-12T02:25:02.196Z,6.40
2022-11-12T02:27:51.802Z,6.30
2022-11-12T02:30:37.222Z,6.30
2022-11-12T02:33:23.304Z,6.30
2022-11-12T02:36:09.404Z,6.30
2022-11-12T02:38:54.825Z,6.30
2022-11-12T02:41:40.579Z,6.20
2022-11-12T02:44:58.436Z,6.20
2022-11-12T02:47:44.121Z,6.20
2022-11-12T02:50:29.589Z,6.20
2022-11-12T02:53:15.149Z,6.20
2022-11-12T02:56:01.499Z,6.20
2022-11-12T02:58:47.164Z,6.20
2022-11-12T03:01:32.944Z,6.20
2022-11-12T03:04:18.237Z,6.20
2022-11-12T03:07:04.046Z,6.20
2022-11-12T03:09:49.813Z,6.20
2022-11-12T03:12:35.565Z,6.20
2022-11-12T03:15:21.079Z,6.20
2022-11-12T03:18:06.522Z,6.20
2022-11-12T03:20:52.559Z,6.30
2022-11-12T03:23:38.440Z,6.30
2022-11-12T03:26:24.065Z,6.30
2022-11-12T03:29:09.817Z,6.30
2022-11-12T03:31:55.924Z,6.30
2022-11-12T03:34:41.589Z,6.20
2022-11-12T03:37:27.051Z,6.20
2022-11-12T03:40:12.667Z,6.10
2022-11-12T03:42:58.651Z,6.00
2022-11-12T03:45:44.709Z,6.00
2022-11-12T03:48:30.236Z,5.90
2022-11-12T03:51:16.513Z,5.90
2022-11-12T03:54:02.216Z,5.80
2022-11-12T03:56:47.487Z,5.80
2022-11-12T03:59:33.482Z,5.80
2022-11-12T04:02:19.160Z,5.70
2022-11-12T04:05:24.890Z,5.70
2022-11-12T04:08:36.443Z,5.70
2022-11-12T04:11:22.711Z,5.70
2022-11-12T04:14:08.354Z,5.70
2022-11-12T04:17:12.575Z,5.70
2022-11-12T04:20:16.891Z,5.70
2022-11-12T04:23:02.626Z,5.60
2022-11-12T04:26:06.498Z,5.70
2022-11-12T04:29:10.841Z,5.70
2022-11-12T04:31:56.573Z,5.60
2022-11-12T04:34:42.436Z,5.70
2022-11-12T04:37:30.303Z,5.70
2022-11-12T04:40:44.829Z,5.70
2022-11-12T04:43:48.635Z,5.70
2022-11-12T04:46:34.748Z,5.70
2022-11-12T04:49:20.447Z,5.60
2022-11-12T04:52:06.195Z,5.50
2022-11-12T04:54:52.762Z,5.50
2022-11-12T04:57:38.972Z,5.50
2022-11-12T05:00:25.096Z,5.50
2022-11-12T05:03:10.989Z,5.50
2022-11-12T05:06:04.452Z,5.50
2022-11-12T05:08:50.286Z,5.50
2022-11-12T05:11:36.219Z,5.50
2022-11-12T05:14:22.904Z,5.40
2022-11-12T05:17:08.613Z,5.40
2022-11-12T05:19:54.282Z,5.40
2022-11-12T05:22:47.687Z,5.40
2022-11-12T05:25:40.025Z,5.40
2022-11-12T05:28:26.145Z,5.40
2022-11-12T05:31:12.126Z,5.40
2022-11-12T05:33:57.690Z,5.40
2022-11-12T05:36:43.686Z,5.40
2022-11-12T05:39:29.301Z,5.40
2022-11-12T05:42:15.008Z,5.40
2022-11-12T05:45:00.733Z,5.40
2022-11-12T05:47:46.312Z,5.30
2022-11-12T05:50:39.955Z,5.30
2022-11-12T05:53:37.238Z,5.30
2022-11-12T05:56:23.213Z,5.30
2022-11-12T05:59:10.762Z,5.30
2022-11-12T06:01:56.758Z,5.30
2022-11-12T06:04:42.687Z,5.20
2022-11-12T06:07:28.702Z,5.10
2022-11-12T06:10:20.137Z,5.00
2022-11-12T06:13:06.608Z,5.00
2022-11-12T06:15:53.826Z,5.00
2022-11-12T06:18:39.711Z,5.00
2022-11-12T06:21:27.407Z,5.00
2022-11-12T06:24:13.408Z,5.00
2022-11-12T06:26:59.251Z,5.10
2022-11-12T06:29:44.633Z,5.20
2022-11-12T06:32:30.163Z,5.30
2022-11-12T06:35:17.519Z,5.40
2022-11-12T06:38:03.209Z,5.50
2022-11-12T06:40:48.619Z,5.60
2022-11-12T06:43:35.549Z,5.80
2022-11-12T06:46:21.501Z,5.90
2022-11-12T06:49:07.184Z,6.30
2022-11-12T06:51:53.303Z,6.60
2022-11-12T06:54:39.173Z,6.90
2022-11-12T06:57:25.105Z,7.00
2022-11-12T07:00:11.966Z,7.20
2022-11-12T07:02:57.779Z,7.30
2022-11-12T07:05:43.824Z,7.80
2022-11-12T07:08:29.810Z,7.90
2022-11-12T07:11:19.786Z,8.00
2022-11-12T07:14:06.954Z,8.40
2022-11-12T07:16:52.588Z,8.80
2022-11-12T07:19:38.335Z,9.10
2022-11-12T07:36:17.839Z,9.20
2022-11-12T07:39:03.623Z,9.90
2022-11-12T07:41:49.448Z,10.00
2022-11-12T07:44:35.364Z,10.00
2022-11-12T07:47:21.108Z,9.90
2022-11-12T07:50:07.187Z,9.70
2022-11-12T07:52:53.225Z,10.20
2022-11-12T07:55:38.997Z,10.40
2022-11-12T07:58:26.010Z,10.40
2022-11-12T08:01:32.282Z,10.70
2022-11-12T08:04:18.008Z,10.90
2022-11-12T08:07:03.541Z,11.20
2022-11-12T08:09:49.362Z,11.50
2022-11-12T08:23:39.270Z,11.50
2022-11-12T08:26:26.480Z,11.70
2022-11-12T08:29:12.035Z,11.90
2022-11-12T08:31:58.018Z,12.00
2022-11-12T08:34:43.950Z,12.30
2022-11-12T08:37:29.836Z,12.60
2022-11-12T08:40:15.727Z,12.70
2022-11-12T08:43:06.836Z,12.80
2022-11-12T08:45:52.529Z,12.90
2022-11-12T08:48:40.166Z,12.60
2022-11-12T08:51:25.893Z,13.00
2022-11-12T08:54:11.630Z,13.00
2022-11-12T08:56:57.214Z,13.00
2022-11-12T08:59:42.894Z,13.30
2022-11-12T09:13:38.201Z,13.60
2022-11-12T09:16:24.391Z,14.30
2022-11-12T09:19:17.769Z,14.20
2022-11-12T09:22:03.627Z,14.60
2022-11-12T09:24:49.568Z,14.60
2022-11-12T09:27:35.324Z,14.60
2022-11-12T11:47:59.421Z,14.60
2022-11-12T11:50:57.052Z,14.10
2022-11-12T11:54:08.234Z,14.30
2022-11-12T11:57:00.301Z,14.20
2022-11-12T12:00:19.592Z,14.10
2022-11-12T12:03:19.748Z,14.00
2022-11-12T12:06:23.961Z,14.00
2022-11-12T12:09:16.525Z,13.90
2022-11-12T12:12:21.614Z,13.90
2022-11-12T12:15:36.993Z,13.70
2022-11-12T12:18:51.748Z,13.60
2022-11-12T12:21:44.307Z,13.50
2022-11-12T12:24:46.265Z,13.50
2022-11-12T12:27:36.677Z,13.60
2022-11-12T12:30:25.070Z,13.60
2022-11-12T12:33:29.435Z,13.50
2022-11-12T12:36:25.640Z,13.30
2022-11-12T12:39:30.318Z,13.30
2022-11-12T12:42:26.223Z,13.40
2022-11-12T12:45:45.017Z,13.40
2022-11-12T12:48:34.104Z,13.40
2022-11-12T12:51:20.867Z,13.50
2022-11-12T12:54:35.440Z,13.50
2022-11-12T12:57:37.273Z,13.50
2022-11-12T13:00:35.099Z,13.40
2022-11-12T13:04:03.301Z,13.40
2022-11-12T13:06:50.245Z,13.40
2022-11-12T13:09:36.023Z,13.30
2022-11-12T13:13:00.092Z,13.30
2022-11-12T13:15:53.846Z,13.30
2022-11-12T13:18:41.869Z,13.30
2022-11-12T13:21:28.492Z,13.30
2022-11-12T13:24:14.513Z,13.20
2022-11-12T13:27:00.871Z,13.20
2022-11-12T13:29:47.638Z,13.20
2022-11-12T13:32:38.311Z,13.30
2022-11-12T13:35:24.023Z,13.20
2022-11-12T13:38:11.507Z,13.20
2022-11-12T13:41:06.114Z,13.10
2022-11-12T13:43:52.237Z,13.00
2022-11-12T13:46:38.250Z,13.10
2022-11-12T13:49:24.335Z,13.00
2022-11-12T13:52:14.886Z,12.90
2022-11-12T13:55:13.906Z,12.90
2022-11-12T13:57:59.600Z,12.90
2022-11-12T14:00:57.267Z,12.90
2022-11-12T14:03:48.364Z,12.80
2022-11-12T14:06:42.703Z,12.90
2022-11-12T14:09:44.708Z,12.80
2022-11-12T14:13:02.858Z,12.70
2022-11-12T14:16:16.704Z,12.70
2022-11-12T14:19:35.211Z,12.70
2022-11-12T14:22:21.932Z,12.60
2022-11-12T14:25:20.480Z,12.50
2022-11-12T14:28:06.385Z,12.40
2022-11-12T14:30:52.115Z,12.40
2022-11-12T14:33:38.002Z,12.30
2022-11-12T14:36:24.490Z,12.30
2022-11-12T14:39:11.632Z,12.20
2022-11-12T14:41:59.464Z,12.20
2022-11-12T14:44:45.221Z,12.10
2022-11-12T14:47:31.023Z,12.10
2022-11-12T14:50:37.457Z,12.00
2022-11-12T14:53:29.215Z,11.90
2022-11-12T14:56:44.893Z,11.80
2022-11-12T14:59:31.553Z,11.70
2022-11-12T15:02:41.620Z,11.60
2022-11-12T15:05:33.828Z,11.60
2022-11-12T15:08:29.809Z,11.50
2022-11-12T15:11:26.353Z,11.40
2022-11-12T15:25:46.474Z,11.30
2022-11-12T15:28:32.225Z,11.00
2022-11-12T15:31:20.530Z,10.90
2022-11-12T15:34:38.571Z,10.90
2022-11-12T15:37:29.919Z,10.80
2022-11-12T15:40:20.762Z,10.80
2022-11-12T15:45:59.435Z,10.70
2022-11-12T15:48:45.017Z,10.60
2022-11-12T15:51:30.708Z,10.50
2022-11-12T15:54:16.479Z,10.50
2022-11-12T15:57:02.013Z,10.40
2022-11-12T16:00:01.679Z,10.40
2022-11-12T16:03:12.452Z,10.30
2022-11-12T16:05:59.692Z,10.30
2022-11-12T16:08:47.939Z,10.30
2022-11-12T16:11:36.371Z,10.20
2022-11-12T16:14:24.957Z,10.20
2022-11-12T16:28:35.424Z,10.10
2022-11-12T16:31:21.995Z,9.80
2022-11-12T16:34:07.470Z,9.70
2022-11-12T16:36:53.059Z,9.70
2022-11-12T16:39:39.998Z,9.60
2022-11-12T16:42:25.746Z,9.60
2022-11-12T16:45:13.091Z,9.60
2022-11-12T16:47:58.793Z,9.50
2022-11-12T16:50:44.583Z,9.50
2022-11-12T16:53:31.244Z,9.50
2022-11-12T16:56:19.835Z,9.40
2022-11-12T16:59:05.725Z,9.40
2022-11-12T17:01:51.666Z,9.30
2022-11-12T17:04:37.165Z,9.30
2022-11-12T17:07:22.725Z,9.30
2022-11-12T17:10:09.182Z,9.20
2022-11-12T17:12:54.944Z,9.20
2022-11-12T17:15:41.067Z,9.10
2022-11-12T17:18:26.706Z,9.10
2022-11-12T17:21:15.460Z,9.10
2022-11-12T17:24:01.085Z,9.00
2022-11-12T17:26:47.693Z,9.00
2022-11-12T17:29:33.277Z,9.00
2022-11-12T17:32:19.216Z,9.00
2022-11-12T17:35:05.428Z,8.80
2022-11-12T17:37:51.424Z,8.70
2022-11-12T17:40:37.228Z,8.60
2022-11-12T17:43:22.693Z,8.70
2022-11-12T17:46:09.592Z,8.60
2022-11-12T17:48:56.088Z,8.50
2022-11-12T17:51:43.114Z,8.40
2022-11-12T17:54:29.132Z,8.40
2022-11-12T17:57:14.978Z,8.40
2022-11-12T18:00:00.179Z,8.30
2022-11-12T18:02:45.897Z,8.20
2022-11-12T18:05:31.847Z,8.10
2022-11-12T18:08:17.573Z,8.00
2022-11-12T18:13:49.926Z,7.90
2022-11-12T18:38:50.221Z,7.90
2022-11-12T18:41:36.161Z,7.60
2022-11-12T18:44:25.871Z,7.60
2022-11-12T18:47:11.790Z,7.50
2022-11-12T18:49:57.567Z,7.50
2022-11-12T18:52:43.700Z,7.50
2022-11-12T18:55:30.129Z,7.50
2022-11-12T18:58:16.081Z,7.40
2022-11-12T19:01:04.304Z,7.40
2022-11-12T19:03:54.146Z,7.40
2022-11-12T19:06:39.567Z,7.30
2022-11-12T19:09:25.271Z,7.30
2022-11-12T19:12:10.669Z,7.20
2022-11-12T19:14:56.532Z,7.20
2022-11-12T19:17:43.976Z,7.20
2022-11-12T19:20:31.555Z,7.20
2022-11-12T19:23:17.710Z,7.20
2022-11-12T19:26:05.489Z,7.20
2022-11-12T19:28:51.506Z,7.20
2022-11-12T19:31:37.675Z,7.20
2022-11-12T19:34:23.270Z,7.20
2022-11-12T19:40:14.902Z,7.20
2022-11-12T19:43:00.505Z,7.30
2022-11-12T19:45:46.207Z,7.30
2022-11-12T19:48:32.007Z,7.30
2022-11-12T19:51:17.870Z,7.30
2022-11-12T19:54:04.630Z,7.40
2022-11-12T19:56:52.570Z,7.40
2022-11-12T19:59:40.212Z,7.40
2022-11-12T20:02:25.961Z,7.40
2022-11-12T20:05:11.823Z,7.30
2022-11-12T20:07:57.666Z,7.30
2022-11-12T20:10:43.200Z,7.30
2022-11-12T20:13:29.417Z,7.30
2022-11-12T20:16:23.836Z,7.30
2022-11-12T20:19:10.595Z,7.30
2022-11-12T20:21:56.181Z,7.20
2022-11-12T20:24:42.300Z,7.30
2022-11-12T20:27:28.208Z,7.30
2022-11-12T20:30:14.052Z,7.30
2022-11-12T20:32:59.838Z,7.30
2022-11-12T20:35:45.582Z,7.20
2022-11-12T20:38:31.508Z,7.10
2022-11-12T20:41:23.229Z,7.10
2022-11-12T20:44:09.105Z,7.10
2022-11-12T20:46:54.976Z,7.20
2022-11-12T20:49:41.063Z,7.10
2022-11-12T20:52:26.923Z,7.20
2022-11-12T20:55:12.792Z,7.20
2022-11-12T20:57:58.700Z,7.20
2022-11-12T21:00:44.468Z,7.00
2022-11-12T21:03:31.003Z,7.00
2022-11-12T21:06:20.768Z,7.00
2022-11-12T21:09:06.742Z,7.10
2022-11-12T21:11:53.012Z,7.10
2022-11-12T21:14:38.642Z,7.10
2022-11-12T21:17:24.056Z,7.10
2022-11-12T21:20:10.063Z,7.20
2022-11-12T21:22:57.430Z,7.10
2022-11-12T21:25:42.958Z,7.00
2022-11-12T21:28:29.060Z,7.00
2022-11-12T21:31:25.950Z,6.90
2022-11-12T21:34:12.047Z,6.90
2022-11-12T21:36:57.804Z,6.90
2022-11-12T21:39:43.768Z,6.90
2022-11-12T21:42:29.607Z,6.90
2022-11-12T21:45:16.447Z,6.90
2022-11-12T21:48:02.245Z,6.90
2022-11-12T21:50:47.988Z,7.00
2022-11-12T21:53:33.921Z,7.00
2022-11-12T21:56:20.065Z,7.00
2022-11-12T21:59:11.599Z,7.10
2022-11-12T22:01:57.321Z,7.00
2022-11-12T22:04:42.985Z,7.00
2022-11-12T22:07:29.132Z,7.00
2022-11-12T22:10:14.689Z,7.00
2022-11-12T22:13:25.525Z,7.00
2022-11-12T22:16:27.345Z,7.00
2022-11-12T22:19:13.125Z,7.10
2022-11-12T22:21:58.963Z,7.20
2022-11-12T22:24:44.646Z,7.20
2022-11-12T22:27:31.615Z,7.20
2022-11-12T22:30:17.225Z,7.20
2022-11-12T22:33:02.952Z,7.30
2022-11-12T22:35:53.549Z,7.20
2022-11-12T22:38:41.594Z,7.20
2022-11-12T22:41:29.448Z,7.30
2022-11-12T22:44:15.490Z,7.30
2022-11-12T22:47:01.184Z,7.30
2022-11-12T22:49:47.346Z,7.30
2022-11-12T22:52:36.888Z,7.30
2022-11-12T22:55:23.225Z,7.30
2022-11-12T22:58:09.755Z,7.40
2022-11-12T23:00:55.293Z,7.40
2022-11-12T23:03:41.016Z,7.30
2022-11-12T23:06:27.828Z,7.30
2022-11-12T23:09:17.367Z,7.30
2022-11-12T23:12:03.550Z,7.20
2022-11-12T23:14:49.206Z,7.20
2022-11-12T23:17:35.741Z,7.20
2022-11-12T23:20:21.372Z,7.20
2022-11-12T23:23:07.566Z,7.20
2022-11-12T23:25:53.119Z,7.20
2022-11-12T23:28:39.234Z,7.20
2022-11-12T23:31:31.027Z,7.10
2022-11-12T23:34:16.808Z,7.10
2022-11-12T23:37:02.597Z,7.10
2022-11-12T23:39:48.406Z,7.10
2022-11-12T23:42:33.939Z,7.00
2022-11-12T23:45:19.661Z,6.90
2022-11-12T23:48:05.720Z,6.80
2022-11-12T23:50:59.678Z,6.80
2022-11-12T23:53:46.053Z,6.90
2022-11-12T23:56:31.506Z,6.80
2022-11-12T23:59:17.078Z,6.80
